createdAt,value
2023-07-12T00:02:33.278Z,0.60
2023-07-12T00:05:07.438Z,0.57
2023-07-12T00:07:40.149Z,0.70
2023-07-12T00:10:26.087Z,0.70
2023-07-12T00:12:56.422Z,0.85
2023-07-12T00:15:40.237Z,0.60
2023-07-12T00:18:17.495Z,0.80
2023-07-12T00:20:50.486Z,1.17
2023-07-12T00:23:27.972Z,0.70
2023-07-12T00:25:54.611Z,1.10
2023-07-12T00:28:32.262Z,1.00
2023-07-12T00:31:08.063Z,1.15
2023-07-12T00:33:56.029Z,0.85
2023-07-12T00:36:38.754Z,1.10
2023-07-12T00:39:08.147Z,1.35
2023-07-12T00:42:07.252Z,1.05
2023-07-12T00:44:38.892Z,1.75
2023-07-12T00:47:05.698Z,1.58
2023-07-12T00:49:32.444Z,0.85
2023-07-12T00:52:12.711Z,1.42
2023-07-12T00:54:59.995Z,1.20
2023-07-12T00:57:28.996Z,1.00
2023-07-12T01:00:00.833Z,0.73
2023-07-12T01:02:28.020Z,1.40
2023-07-12T01:04:58.829Z,1.20
2023-07-12T01:07:28.448Z,1.20
2023-07-12T01:09:55.132Z,1.10
2023-07-12T01:12:21.744Z,1.27
2023-07-12T01:14:48.618Z,1.63
2023-07-12T01:17:15.376Z,1.02
2023-07-12T01:19:42.114Z,1.90
2023-07-12T01:22:09.538Z,1.23
2023-07-12T01:24:37.692Z,1.23
2023-07-12T01:27:15.442Z,1.55
2023-07-12T01:29:42.448Z,1.15
2023-07-12T01:32:09.720Z,1.38
2023-07-12T01:34:36.399Z,1.40
2023-07-12T01:37:05.929Z,1.73
2023-07-12T01:39:34.485Z,1.20
2023-07-12T01:42:01.347Z,1.40
2023-07-12T01:44:28.026Z,1.33
2023-07-12T01:46:55.817Z,1.40
2023-07-12T01:49:22.594Z,1.90
2023-07-12T01:51:50.112Z,1.50
2023-07-12T01:54:16.720Z,1.40
2023-07-12T01:56:43.321Z,1.42
2023-07-12T01:59:09.898Z,1.67
2023-07-12T02:01:36.535Z,1.63
2023-07-12T02:04:03.390Z,1.50
2023-07-12T02:06:29.986Z,1.50
2023-07-12T02:08:56.670Z,2.05
2023-07-12T02:11:23.389Z,1.20
2023-07-12T02:13:50.192Z,1.33
2023-07-12T02:16:17.220Z,1.23
2023-07-12T02:18:43.843Z,1.27
2023-07-12T02:21:10.865Z,1.65
2023-07-12T02:23:37.661Z,1.60
2023-07-12T02:26:04.468Z,1.50
2023-07-12T02:28:31.088Z,1.38
2023-07-12T02:31:15.670Z,1.73
2023-07-12T02:33:42.295Z,1.58
2023-07-12T02:36:08.854Z,1.30
2023-07-12T02:38:35.509Z,1.60
2023-07-12T02:41:02.164Z,1.42
2023-07-12T02:43:28.846Z,1.30
2023-07-12T02:45:55.464Z,1.70
2023-07-12T02:48:22.103Z,1.95
2023-07-12T02:50:48.719Z,1.70
2023-07-12T02:53:19.621Z,2.00
2023-07-12T02:55:51.176Z,1.65
2023-07-12T02:58:19.424Z,1.77
2023-07-12T03:00:46.095Z,1.20
2023-07-12T03:03:12.785Z,2.47
2023-07-12T03:05:40.931Z,1.50
2023-07-12T03:08:08.794Z,2.10
2023-07-12T03:10:38.771Z,1.80
2023-07-12T03:13:05.455Z,2.55
2023-07-12T03:15:32.125Z,1.58
2023-07-12T03:17:59.102Z,1.63
2023-07-12T03:20:25.862Z,1.70
2023-07-12T03:22:52.508Z,1.35
2023-07-12T03:25:19.098Z,1.98
2023-07-12T03:27:48.500Z,2.65
2023-07-12T03:30:15.503Z,1.95
2023-07-12T03:32:42.153Z,2.30
2023-07-12T03:35:09.340Z,2.42
2023-07-12T03:37:35.984Z,2.50
2023-07-12T03:40:03.057Z,2.55
2023-07-12T03:42:29.682Z,2.95
2023-07-12T03:44:56.266Z,1.90
2023-07-12T03:47:24.975Z,1.50
2023-07-12T03:49:51.868Z,1.50
2023-07-12T03:52:18.680Z,3.58
2023-07-12T03:54:45.336Z,3.33
2023-07-12T03:57:11.948Z,2.30
2023-07-12T03:59:38.567Z,1.88
2023-07-12T04:02:05.417Z,2.22
2023-07-12T04:04:32.024Z,2.50
2023-07-12T04:06:58.616Z,1.70
2023-07-12T04:09:25.279Z,1.77
2023-07-12T04:11:51.855Z,2.13
2023-07-12T04:14:18.529Z,2.17
2023-07-12T04:16:47.920Z,2.00
2023-07-12T04:19:14.594Z,2.00
2023-07-12T04:21:41.225Z,2.65
2023-07-12T04:24:08.045Z,1.88
2023-07-12T04:26:34.645Z,1.70
2023-07-12T04:29:02.414Z,1.92
2023-07-12T04:31:29.492Z,4.15
2023-07-12T04:33:56.227Z,3.80
2023-07-12T04:36:24.934Z,2.00
2023-07-12T04:38:51.564Z,2.03
2023-07-12T04:41:18.316Z,2.35
2023-07-12T04:43:44.927Z,3.42
2023-07-12T04:46:11.526Z,2.55
2023-07-12T04:48:38.109Z,2.80
2023-07-12T04:51:06.265Z,1.77
2023-07-12T04:53:34.779Z,1.75
2023-07-12T04:56:01.864Z,1.88
2023-07-12T04:58:28.425Z,2.13
2023-07-12T05:00:56.453Z,2.20
2023-07-12T05:03:23.610Z,3.17
2023-07-12T05:05:50.744Z,1.85
2023-07-12T05:08:17.476Z,2.08
2023-07-12T05:10:44.094Z,2.40
2023-07-12T05:13:11.426Z,1.85
2023-07-12T05:15:38.142Z,2.80
2023-07-12T05:18:04.901Z,2.40
2023-07-12T05:20:32.812Z,2.53
2023-07-12T05:22:59.653Z,2.33
2023-07-12T05:25:26.273Z,2.20
2023-07-12T05:27:52.929Z,2.47
2023-07-12T05:30:19.581Z,1.75
2023-07-12T05:32:46.227Z,2.28
2023-07-12T05:35:13.125Z,1.70
2023-07-12T05:37:39.864Z,1.70
2023-07-12T05:40:07.337Z,2.40
2023-07-12T05:42:34.209Z,2.72
2023-07-12T05:45:01.576Z,2.22
2023-07-12T05:47:28.312Z,2.28
2023-07-12T05:49:55.313Z,2.08
2023-07-12T05:52:21.918Z,1.90
2023-07-12T05:54:48.582Z,3.17
2023-07-12T05:57:15.198Z,2.67
2023-07-12T05:59:41.849Z,2.60
2023-07-12T06:02:14.135Z,2.45
2023-07-12T06:04:41.461Z,2.40
2023-07-12T06:07:08.124Z,3.17
2023-07-12T06:09:34.796Z,1.73
2023-07-12T06:12:01.380Z,2.92
2023-07-12T06:14:27.970Z,2.85
2023-07-12T06:16:54.597Z,2.90
2023-07-12T06:19:21.176Z,2.40
2023-07-12T06:21:47.757Z,2.30
2023-07-12T06:24:14.371Z,2.38
2023-07-12T06:26:40.944Z,2.38
2023-07-12T06:29:07.547Z,2.90
2023-07-12T06:31:34.199Z,2.38
2023-07-12T06:34:03.374Z,2.72
2023-07-12T06:36:29.986Z,2.97
2023-07-12T06:38:56.793Z,2.90
2023-07-12T06:41:23.952Z,2.35
2023-07-12T06:43:50.568Z,1.98
2023-07-12T06:46:18.154Z,2.67
2023-07-12T06:48:44.910Z,2.10
2023-07-12T06:51:11.550Z,2.30
2023-07-12T06:53:38.358Z,2.70
2023-07-12T06:56:05.226Z,3.20
2023-07-12T06:58:31.848Z,3.95
2023-07-12T07:00:58.503Z,2.75
2023-07-12T07:03:25.154Z,2.15
2023-07-12T07:05:51.792Z,2.42
2023-07-12T07:08:20.584Z,1.73
2023-07-12T07:10:52.200Z,2.30
2023-07-12T07:13:18.894Z,1.90
2023-07-12T07:15:47.290Z,1.60
2023-07-12T07:18:14.409Z,2.28
2023-07-12T07:20:42.060Z,1.85
2023-07-12T07:23:09.605Z,1.52
2023-07-12T07:25:36.309Z,2.80
2023-07-12T07:28:03.412Z,2.88
2023-07-12T07:30:31.224Z,1.33
2023-07-12T07:32:59.084Z,1.95
2023-07-12T07:35:26.826Z,2.55
2023-07-12T07:37:53.493Z,1.77
2023-07-12T07:40:20.237Z,1.95
2023-07-12T07:42:46.951Z,2.03
2023-07-12T07:45:13.593Z,1.52
2023-07-12T07:47:40.246Z,1.65
2023-07-12T07:50:08.073Z,1.40
2023-07-12T07:52:34.727Z,1.33
2023-07-12T07:55:01.885Z,1.60
2023-07-12T07:57:29.986Z,2.17
2023-07-12T07:59:56.878Z,1.50
2023-07-12T08:02:24.361Z,2.05
2023-07-12T08:04:51.355Z,1.55
2023-07-12T08:07:18.076Z,1.40
2023-07-12T08:09:44.947Z,1.20
2023-07-12T08:12:11.675Z,2.15
2023-07-12T08:14:38.334Z,1.20
2023-07-12T08:17:05.172Z,1.55
2023-07-12T08:19:31.779Z,1.35
2023-07-12T08:21:58.474Z,1.20
2023-07-12T08:24:25.094Z,1.00
2023-07-12T08:27:06.148Z,1.25
2023-07-12T08:29:34.653Z,1.30
2023-07-12T08:32:01.441Z,1.60
2023-07-12T08:34:28.225Z,1.23
2023-07-12T08:36:54.804Z,1.45
2023-07-12T08:39:21.362Z,1.20
2023-07-12T08:41:47.966Z,2.33
2023-07-12T08:44:17.832Z,2.92
2023-07-12T08:46:54.112Z,1.10
2023-07-12T08:49:20.907Z,1.33
2023-07-12T08:51:49.028Z,1.23
2023-07-12T08:54:23.359Z,1.35
2023-07-12T08:56:53.525Z,1.60
2023-07-12T08:59:21.667Z,1.13
2023-07-12T09:01:54.740Z,1.60
2023-07-12T09:04:29.287Z,1.20
2023-07-12T09:06:58.306Z,1.65
2023-07-12T09:09:27.742Z,1.33
2023-07-12T09:11:55.531Z,1.88
2023-07-12T09:14:25.084Z,0.80
2023-07-12T09:16:58.838Z,0.93
2023-07-12T09:19:32.437Z,1.52
2023-07-12T09:22:14.974Z,1.20
2023-07-12T09:24:55.392Z,0.73
2023-07-12T09:27:25.779Z,1.45
2023-07-12T09:30:03.634Z,0.98
2023-07-12T09:32:35.990Z,1.13
2023-07-12T09:35:40.870Z,1.20
2023-07-12T09:38:13.513Z,1.08
2023-07-12T09:40:46.106Z,0.73
2023-07-12T09:43:18.044Z,0.88
2023-07-12T09:46:13.098Z,0.90
2023-07-12T09:48:57.978Z,1.85
2023-07-12T09:51:32.191Z,0.82
2023-07-12T09:54:07.627Z,0.95
2023-07-12T09:56:46.182Z,1.48
2023-07-12T09:59:49.837Z,1.20
2023-07-12T10:02:36.704Z,1.33
2023-07-12T10:05:16.907Z,1.20
2023-07-12T10:07:54.467Z,1.10
2023-07-12T10:10:46.398Z,1.10
2023-07-12T10:13:37.750Z,0.80
2023-07-12T10:16:11.013Z,0.90
2023-07-12T10:18:39.608Z,0.82
2023-07-12T10:21:08.330Z,1.35
2023-07-12T10:23:43.860Z,0.73
2023-07-12T10:26:13.892Z,0.95
2023-07-12T10:29:08.278Z,0.77
2023-07-12T10:31:39.277Z,1.05
2023-07-12T10:34:29.353Z,0.50
2023-07-12T10:37:01.586Z,1.00
2023-07-12T10:39:28.642Z,0.82
2023-07-12T10:42:07.011Z,0.90
2023-07-12T10:44:38.701Z,0.70
2023-07-12T10:47:10.839Z,1.13
2023-07-12T10:50:06.065Z,1.25
2023-07-12T10:52:56.160Z,1.00
2023-07-12T10:55:38.851Z,0.73
2023-07-12T10:58:26.280Z,0.60
2023-07-12T11:00:54.993Z,0.80
2023-07-12T11:03:34.210Z,1.23
2023-07-12T11:06:27.686Z,0.60
2023-07-12T11:09:00.379Z,0.77
2023-07-12T11:11:31.330Z,1.10
2023-07-12T11:14:12.497Z,1.10
2023-07-12T11:16:48.908Z,0.93
2023-07-12T11:19:43.856Z,0.60
2023-07-12T11:22:18.902Z,0.45
2023-07-12T11:24:51.381Z,0.57
2023-07-12T11:27:45.972Z,0.47
2023-07-12T11:30:37.433Z,0.57
2023-07-12T11:33:10.919Z,0.30
2023-07-12T11:35:50.416Z,0.50
2023-07-12T11:38:33.132Z,0.38
2023-07-12T11:41:04.518Z,0.40
2023-07-12T11:43:35.583Z,0.50
2023-07-12T11:46:05.960Z,0.40
2023-07-12T11:48:35.053Z,0.50
2023-07-12T11:51:10.030Z,0.60
2023-07-12T11:53:37.531Z,0.93
2023-07-12T11:56:06.620Z,0.52
2023-07-12T11:58:35.475Z,0.50
2023-07-12T12:01:02.303Z,0.60
2023-07-12T12:03:28.993Z,0.50
2023-07-12T12:05:55.741Z,0.57
2023-07-12T12:08:29.055Z,0.98
2023-07-12T12:10:56.095Z,0.52
2023-07-12T12:13:27.970Z,0.90
2023-07-12T12:15:59.857Z,0.57
2023-07-12T12:18:26.784Z,0.70
2023-07-12T12:20:58.090Z,0.50
2023-07-12T12:23:38.941Z,0.70
2023-07-12T12:26:27.277Z,0.45
2023-07-12T12:29:14.019Z,0.35
2023-07-12T12:31:56.584Z,0.55
2023-07-12T12:34:28.378Z,0.73
2023-07-12T12:37:09.735Z,0.80
2023-07-12T12:39:36.857Z,0.60
2023-07-12T12:42:17.711Z,0.63
2023-07-12T12:44:44.310Z,0.80
2023-07-12T12:47:20.505Z,0.50
2023-07-12T12:55:09.650Z,1.15
2023-07-12T13:20:33.625Z,0.52
2023-07-12T13:23:00.359Z,0.50
2023-07-12T13:25:27.000Z,0.55
2023-07-12T13:27:56.183Z,0.45
2023-07-12T13:30:26.818Z,1.00
2023-07-12T13:32:53.930Z,0.60
2023-07-12T13:39:28.412Z,0.50
2023-07-12T13:40:43.412Z,0.50
2023-07-12T13:43:44.892Z,0.50
2023-07-12T13:46:02.334Z,0.63
2023-07-12T13:48:29.444Z,0.43
2023-07-12T13:50:57.244Z,0.52
2023-07-12T13:53:24.011Z,0.60
2023-07-12T13:56:00.258Z,1.33
2023-07-12T13:58:30.919Z,0.73
2023-07-12T14:03:34.094Z,0.60
2023-07-12T14:06:02.720Z,0.50
2023-07-12T14:10:58.956Z,0.60
2023-07-12T14:13:25.896Z,0.20
2023-07-12T14:15:52.553Z,0.40
2023-07-12T14:18:19.190Z,0.60
2023-07-12T14:20:47.637Z,0.30
2023-07-12T14:23:20.298Z,0.47
2023-07-12T14:25:46.860Z,0.40
2023-07-12T14:28:14.051Z,0.40
2023-07-12T14:33:31.099Z,0.40
2023-07-12T14:35:58.285Z,0.57
2023-07-12T14:38:25.292Z,1.40
2023-07-12T14:40:52.084Z,0.60
2023-07-12T14:43:18.951Z,0.43
2023-07-12T14:45:45.555Z,0.30
2023-07-12T14:48:13.049Z,0.30
2023-07-12T14:50:42.565Z,0.20
2023-07-12T14:53:22.252Z,0.30
2023-07-12T14:55:49.768Z,0.40
2023-07-12T14:58:19.948Z,0.35
2023-07-12T15:00:47.160Z,0.30
2023-07-12T15:03:22.774Z,0.35
2023-07-12T15:05:51.139Z,0.40
2023-07-12T15:08:33.946Z,0.30
2023-07-12T15:11:04.757Z,0.20
2023-07-12T15:13:32.233Z,0.60
2023-07-12T15:15:58.662Z,0.88
2023-07-12T15:18:26.745Z,0.22
2023-07-12T15:21:00.619Z,0.30
2023-07-12T15:23:36.025Z,0.30
2023-07-12T15:26:02.763Z,0.50
2023-07-12T15:28:32.951Z,0.30
2023-07-12T15:30:59.735Z,0.30
2023-07-12T15:33:29.546Z,0.40
2023-07-12T15:35:58.630Z,0.40
2023-07-12T15:38:28.709Z,0.40
2023-07-12T15:40:57.183Z,0.50
2023-07-12T15:43:33.424Z,0.22
2023-07-12T15:46:01.788Z,0.30
2023-07-12T15:48:30.621Z,0.60
2023-07-12T15:51:26.734Z,0.80
2023-07-12T15:53:55.754Z,0.40
2023-07-12T15:56:28.776Z,0.40
2023-07-12T15:58:55.797Z,0.45
2023-07-12T16:01:25.073Z,0.47
2023-07-12T16:03:52.451Z,0.30
2023-07-12T16:09:00.752Z,0.50
2023-07-12T16:11:34.091Z,0.55
2023-07-12T16:14:10.046Z,0.50
2023-07-12T16:16:36.697Z,0.60
2023-07-12T16:19:03.469Z,0.40
2023-07-12T16:21:32.137Z,0.52
2023-07-12T16:24:00.068Z,0.90
2023-07-12T16:26:32.506Z,0.40
2023-07-12T16:29:00.474Z,0.60
2023-07-12T16:31:36.881Z,0.60
2023-07-12T16:34:11.782Z,0.57
2023-07-12T16:39:06.416Z,0.50
2023-07-12T16:41:33.118Z,0.80
2023-07-12T16:43:59.850Z,0.50
2023-07-12T16:46:27.334Z,0.70
2023-07-12T16:48:54.716Z,0.50
2023-07-12T16:51:48.773Z,1.83
2023-07-12T16:54:15.363Z,0.63
2023-07-12T16:56:41.997Z,0.95
2023-07-12T16:59:08.673Z,1.33
2023-07-12T17:01:35.962Z,1.02
2023-07-12T17:04:02.940Z,0.65
2023-07-12T17:06:29.666Z,0.60
2023-07-12T17:08:57.168Z,0.77
2023-07-12T17:11:29.136Z,0.70
2023-07-12T17:13:56.194Z,0.80
2023-07-12T17:16:22.903Z,0.60
2023-07-12T17:18:49.528Z,0.60
2023-07-12T17:21:19.370Z,0.50
2023-07-12T17:23:48.502Z,0.63
2023-07-12T17:26:18.166Z,0.77
2023-07-12T17:28:46.857Z,0.95
2023-07-12T17:31:22.488Z,0.45
2023-07-12T17:33:49.545Z,0.60
2023-07-12T17:36:19.232Z,0.75
2023-07-12T17:38:46.788Z,1.05
2023-07-12T17:41:19.930Z,1.25
2023-07-12T17:43:47.105Z,0.63
2023-07-12T17:46:14.118Z,1.33
2023-07-12T17:48:41.813Z,0.82
2023-07-12T17:51:29.005Z,1.30
2023-07-12T17:53:56.564Z,1.02
2023-07-12T17:56:23.915Z,0.85
2023-07-12T17:58:50.619Z,0.60
2023-07-12T18:01:22.548Z,0.65
2023-07-12T18:03:50.119Z,0.60
2023-07-12T18:06:19.129Z,0.50
2023-07-12T18:08:46.762Z,1.27
2023-07-12T18:11:21.197Z,0.85
2023-07-12T18:13:48.894Z,0.90
2023-07-12T18:16:15.606Z,0.50
2023-07-12T18:18:42.320Z,1.00
2023-07-12T18:21:25.507Z,0.90
2023-07-12T18:23:52.910Z,0.60
2023-07-12T18:26:20.968Z,1.52
2023-07-12T18:28:48.829Z,0.73
2023-07-12T18:31:19.065Z,0.70
2023-07-12T18:33:45.798Z,1.10
2023-07-12T18:36:23.115Z,0.60
2023-07-12T18:38:51.243Z,0.52
2023-07-12T18:41:21.201Z,0.70
2023-07-12T18:43:49.450Z,0.60
2023-07-12T18:46:16.959Z,1.10
2023-07-12T18:48:45.631Z,0.80
2023-07-12T18:51:13.886Z,0.73
2023-07-12T18:53:40.532Z,0.77
2023-07-12T18:56:16.505Z,0.65
2023-07-12T18:58:43.415Z,1.40
2023-07-12T19:01:16.166Z,0.68
2023-07-12T19:03:43.197Z,0.65
2023-07-12T19:06:22.828Z,0.93
2023-07-12T19:08:49.964Z,0.70
2023-07-12T19:11:39.998Z,0.98
2023-07-12T19:14:13.668Z,0.60
2023-07-12T19:16:40.621Z,0.80
2023-07-12T19:19:07.329Z,0.40
2023-07-12T19:21:36.825Z,0.95
2023-07-12T19:24:04.662Z,0.77
2023-07-12T19:26:33.593Z,1.25
2023-07-12T19:29:00.462Z,2.72
2023-07-12T19:31:32.354Z,0.88
2023-07-12T19:33:59.814Z,0.88
2023-07-12T19:36:28.237Z,1.05
2023-07-12T19:38:55.939Z,1.08
2023-07-12T19:41:32.286Z,0.90
2023-07-12T19:43:58.897Z,1.48
2023-07-12T19:46:25.623Z,1.40
2023-07-12T19:48:52.617Z,1.08
2023-07-12T19:51:21.542Z,1.25
2023-07-12T19:53:52.239Z,1.90
2023-07-12T19:56:18.987Z,0.80
2023-07-12T19:58:46.447Z,2.08
2023-07-12T20:01:19.678Z,1.65
2023-07-12T20:03:46.704Z,1.30
2023-07-12T20:06:14.360Z,2.45
2023-07-12T20:08:41.833Z,1.10
2023-07-12T20:11:09.343Z,1.00
2023-07-12T20:13:35.900Z,0.93
2023-07-12T20:16:02.657Z,1.45
2023-07-12T20:18:30.042Z,1.20
2023-07-12T20:20:56.636Z,1.60
2023-07-12T20:23:23.945Z,1.30
2023-07-12T20:25:52.492Z,1.42
2023-07-12T20:28:20.324Z,1.25
2023-07-12T20:30:48.015Z,1.80
2023-07-12T20:33:17.995Z,2.53
2023-07-12T20:35:44.619Z,3.22
2023-07-12T20:38:11.490Z,2.05
2023-07-12T20:40:38.514Z,1.83
2023-07-12T20:43:06.033Z,1.80
2023-07-12T20:45:34.050Z,1.95
2023-07-12T20:48:02.672Z,2.60
2023-07-12T20:50:29.503Z,1.75
2023-07-12T20:52:57.497Z,1.77
2023-07-12T20:55:29.022Z,1.45
2023-07-12T20:57:55.658Z,1.90
2023-07-12T21:03:02.830Z,3.75
2023-07-12T21:05:29.481Z,1.88
2023-07-12T21:07:56.104Z,1.92
2023-07-12T21:10:22.949Z,2.38
2023-07-12T21:12:49.687Z,4.50
2023-07-12T21:15:16.306Z,2.75
2023-07-12T21:17:43.119Z,1.73
2023-07-12T21:20:10.386Z,2.50
2023-07-12T21:22:39.373Z,2.05
2023-07-12T21:25:11.174Z,1.90
2023-07-12T21:27:38.218Z,2.38
2023-07-12T21:30:05.970Z,1.73
2023-07-12T21:32:33.956Z,1.83
2023-07-12T21:35:01.526Z,1.63
2023-07-12T21:37:28.137Z,1.88
2023-07-12T21:39:54.733Z,1.42
2023-07-12T21:42:21.359Z,1.70
2023-07-12T21:44:47.962Z,2.22
2023-07-12T21:47:15.378Z,1.98
2023-07-12T21:49:42.209Z,3.95
2023-07-12T21:52:09.174Z,2.83
2023-07-12T21:54:35.863Z,2.50
2023-07-12T21:57:02.529Z,2.38
2023-07-12T21:59:29.065Z,1.80
2023-07-12T22:01:55.669Z,1.98
2023-07-12T22:04:22.456Z,1.70
2023-07-12T22:06:49.061Z,2.63
2023-07-12T22:09:16.991Z,2.08
2023-07-12T22:11:43.729Z,1.80
2023-07-12T22:14:10.610Z,1.48
2023-07-12T22:16:37.576Z,2.15
2023-07-12T22:19:05.215Z,2.13
2023-07-12T22:21:33.542Z,1.98
2023-07-12T22:24:00.232Z,2.20
2023-07-12T22:26:29.118Z,1.30
2023-07-12T22:28:56.687Z,2.85
2023-07-12T22:31:23.520Z,1.83
2023-07-12T22:33:50.680Z,3.15
2023-07-12T22:36:17.443Z,2.50
2023-07-12T22:38:44.124Z,2.50
2023-07-12T22:41:12.157Z,1.38
2023-07-12T22:43:38.748Z,1.63
2023-07-12T22:46:06.641Z,0.70
2023-07-12T22:48:34.596Z,1.00
2023-07-12T22:51:02.504Z,0.93
2023-07-12T22:53:30.119Z,0.90
2023-07-12T22:55:58.321Z,0.47
2023-07-12T22:58:25.762Z,1.02
2023-07-12T23:00:52.465Z,0.85
2023-07-12T23:03:19.160Z,0.60
2023-07-12T23:05:45.753Z,1.13
2023-07-12T23:08:12.821Z,0.75
2023-07-12T23:10:39.424Z,0.60
2023-07-12T23:13:06.892Z,1.00
2023-07-12T23:15:34.161Z,1.15
2023-07-12T23:18:01.206Z,2.08
2023-07-12T23:20:27.948Z,1.00
2023-07-12T23:22:54.541Z,2.55
2023-07-12T23:25:26.517Z,1.60
2023-07-12T23:27:57.344Z,1.20
2023-07-12T23:30:24.902Z,1.67
2023-07-12T23:32:52.825Z,1.33
2023-07-12T23:35:19.708Z,2.63
2023-07-12T23:37:46.447Z,1.52
2023-07-12T23:40:14.643Z,1.80
2023-07-12T23:42:41.272Z,1.65
2023-07-12T23:45:10.944Z,2.65
2023-07-12T23:47:37.590Z,1.92
2023-07-12T23:50:04.510Z,2.33
2023-07-12T23:52:31.096Z,2.67
2023-07-12T23:54:57.829Z,1.73
2023-07-12T23:57:24.376Z,1.88
2023-07-12T23:59:53.549Z,1.60
